sensor_id;sensor_type;location;lat;lon;timestamp;temperature;humidity
21163;DHT22;10739;52.198;20.908;2022-10-20T00:01:17;4.20;99.90
21163;DHT22;10739;52.198;20.908;2022-10-20T00:03:46;4.20;99.90
21163;DHT22;10739;52.198;20.908;2022-10-20T00:08:42;4.20;99.90
21163;DHT22;10739;52.198;20.908;2022-10-20T00:11:11;4.20;99.90
21163;DHT22;10739;52.198;20.908;2022-10-20T00:13:41;4.10;99.90
21163;DHT22;10739;52.198;20.908;2022-10-20T00:16:08;4.10;99.90
21163;DHT22;10739;52.198;20.908;2022-10-20T00:18:35;4.10;99.90
21163;DHT22;10739;52.198;20.908;2022-10-20T00:21:14;4.10;99.90
21163;DHT22;10739;52.198;20.908;2022-10-20T00:23:43;4.00;99.90
21163;DHT22;10739;52.198;20.908;2022-10-20T00:26:21;3.90;99.90
21163;DHT22;10739;52.198;20.908;2022-10-20T00:28:51;3.90;99.90
21163;DHT22;10739;52.198;20.908;2022-10-20T00:31:19;3.90;99.90
21163;DHT22;10739;52.198;20.908;2022-10-20T00:33:46;3.80;99.90
21163;DHT22;10739;52.198;20.908;2022-10-20T00:36:16;3.80;99.90
21163;DHT22;10739;52.198;20.908;2022-10-20T00:38:43;3.80;99.90
21163;DHT22;10739;52.198;20.908;2022-10-20T00:41:13;3.80;99.90
21163;DHT22;10739;52.198;20.908;2022-10-20T00:43:52;3.80;99.90
21163;DHT22;10739;52.198;20.908;2022-10-20T00:46:22;3.70;99.90
21163;DHT22;10739;52.198;20.908;2022-10-20T00:49:13;3.80;99.90
21163;DHT22;10739;52.198;20.908;2022-10-20T00:51:43;3.80;99.90
21163;DHT22;10739;52.198;20.908;2022-10-20T00:54:13;3.70;99.90
21163;DHT22;10739;52.198;20.908;2022-10-20T00:56:46;3.80;99.90
21163;DHT22;10739;52.198;20.908;2022-10-20T00:59:16;3.80;99.90
21163;DHT22;10739;52.198;20.908;2022-10-20T01:01:47;3.70;99.90
21163;DHT22;10739;52.198;20.908;2022-10-20T01:04:14;3.70;99.90
21163;DHT22;10739;52.198;20.908;2022-10-20T01:06:42;3.70;99.90
21163;DHT22;10739;52.198;20.908;2022-10-20T01:09:08;3.60;99.90
21163;DHT22;10739;52.198;20.908;2022-10-20T01:14:51;3.50;99.90
21163;DHT22;10739;52.198;20.908;2022-10-20T01:20:53;3.50;99.90
21163;DHT22;10739;52.198;20.908;2022-10-20T01:35:40;3.50;99.90
21163;DHT22;10739;52.198;20.908;2022-10-20T01:41:26;3.40;99.90
21163;DHT22;10739;52.198;20.908;2022-10-20T01:44:04;3.40;99.90
21163;DHT22;10739;52.198;20.908;2022-10-20T01:46:34;3.40;99.90
21163;DHT22;10739;52.198;20.908;2022-10-20T01:49:04;3.50;99.90
21163;DHT22;10739;52.198;20.908;2022-10-20T01:51:32;3.50;99.90
21163;DHT22;10739;52.198;20.908;2022-10-20T01:53:59;3.50;99.90
21163;DHT22;10739;52.198;20.908;2022-10-20T01:56:39;3.40;99.90
21163;DHT22;10739;52.198;20.908;2022-10-20T02:05:22;3.50;99.90
21163;DHT22;10739;52.198;20.908;2022-10-20T02:07:56;3.40;99.90
21163;DHT22;10739;52.198;20.908;2022-10-20T02:10:33;3.30;99.90
21163;DHT22;10739;52.198;20.908;2022-10-20T02:13:10;3.30;99.90
21163;DHT22;10739;52.198;20.908;2022-10-20T02:15:42;3.30;99.90
21163;DHT22;10739;52.198;20.908;2022-10-20T02:18:16;3.30;99.90
21163;DHT22;10739;52.198;20.908;2022-10-20T02:20:49;3.20;99.90
21163;DHT22;10739;52.198;20.908;2022-10-20T02:23:18;3.20;99.90
21163;DHT22;10739;52.198;20.908;2022-10-20T02:25:47;3.10;99.90
21163;DHT22;10739;52.198;20.908;2022-10-20T02:28:17;3.10;99.90
21163;DHT22;10739;52.198;20.908;2022-10-20T02:30:46;3.10;99.90
21163;DHT22;10739;52.198;20.908;2022-10-20T02:33:15;3.00;99.90
21163;DHT22;10739;52.198;20.908;2022-10-20T02:35:47;3.00;99.90
21163;DHT22;10739;52.198;20.908;2022-10-20T02:38:16;3.00;99.90
21163;DHT22;10739;52.198;20.908;2022-10-20T02:40:42;3.00;99.90
21163;DHT22;10739;52.198;20.908;2022-10-20T02:43:09;2.90;99.90
21163;DHT22;10739;52.198;20.908;2022-10-20T02:45:35;2.90;99.90
21163;DHT22;10739;52.198;20.908;2022-10-20T02:48:01;2.90;99.90
21163;DHT22;10739;52.198;20.908;2022-10-20T02:50:28;2.90;99.90
21163;DHT22;10739;52.198;20.908;2022-10-20T02:52:55;2.80;99.90
21163;DHT22;10739;52.198;20.908;2022-10-20T02:55:21;2.80;99.90
21163;DHT22;10739;52.198;20.908;2022-10-20T02:57:47;2.80;99.90
21163;DHT22;10739;52.198;20.908;2022-10-20T03:00:14;2.80;99.90
21163;DHT22;10739;52.198;20.908;2022-10-20T03:02:40;2.70;99.90
21163;DHT22;10739;52.198;20.908;2022-10-20T03:05:07;2.70;99.90
21163;DHT22;10739;52.198;20.908;2022-10-20T03:07:33;2.70;99.90
21163;DHT22;10739;52.198;20.908;2022-10-20T03:09:59;2.70;99.90
21163;DHT22;10739;52.198;20.908;2022-10-20T03:12:26;2.70;99.90
21163;DHT22;10739;52.198;20.908;2022-10-20T03:14:52;2.70;99.90
21163;DHT22;10739;52.198;20.908;2022-10-20T03:17:18;2.70;99.90
21163;DHT22;10739;52.198;20.908;2022-10-20T03:19:45;2.70;99.90
21163;DHT22;10739;52.198;20.908;2022-10-20T03:22:11;2.70;99.90
21163;DHT22;10739;52.198;20.908;2022-10-20T03:24:38;2.70;99.90
21163;DHT22;10739;52.198;20.908;2022-10-20T03:27:04;2.70;99.90
21163;DHT22;10739;52.198;20.908;2022-10-20T03:29:30;2.70;99.90
21163;DHT22;10739;52.198;20.908;2022-10-20T03:31:56;2.70;99.90
21163;DHT22;10739;52.198;20.908;2022-10-20T03:34:23;2.70;99.90
21163;DHT22;10739;52.198;20.908;2022-10-20T03:36:49;2.70;99.90
21163;DHT22;10739;52.198;20.908;2022-10-20T03:39:16;2.70;99.90
21163;DHT22;10739;52.198;20.908;2022-10-20T03:41:42;2.60;99.90
21163;DHT22;10739;52.198;20.908;2022-10-20T03:44:09;2.60;99.90
21163;DHT22;10739;52.198;20.908;2022-10-20T03:46:35;2.60;99.90
21163;DHT22;10739;52.198;20.908;2022-10-20T03:49:02;2.60;99.90
21163;DHT22;10739;52.198;20.908;2022-10-20T03:51:29;2.50;99.90
21163;DHT22;10739;52.198;20.908;2022-10-20T03:53:55;2.50;99.90
21163;DHT22;10739;52.198;20.908;2022-10-20T03:56:21;2.50;99.90
21163;DHT22;10739;52.198;20.908;2022-10-20T03:58:48;2.50;99.90
21163;DHT22;10739;52.198;20.908;2022-10-20T04:01:21;2.50;99.90
21163;DHT22;10739;52.198;20.908;2022-10-20T04:03:52;2.50;99.90
21163;DHT22;10739;52.198;20.908;2022-10-20T04:06:18;2.50;99.90
21163;DHT22;10739;52.198;20.908;2022-10-20T04:08:44;2.40;99.90
21163;DHT22;10739;52.198;20.908;2022-10-20T04:11:11;2.40;99.90
21163;DHT22;10739;52.198;20.908;2022-10-20T04:13:37;2.40;99.90
21163;DHT22;10739;52.198;20.908;2022-10-20T04:16:04;2.40;99.90
21163;DHT22;10739;52.198;20.908;2022-10-20T04:18:31;2.40;99.90
21163;DHT22;10739;52.198;20.908;2022-10-20T04:20:57;2.40;99.90
21163;DHT22;10739;52.198;20.908;2022-10-20T04:23:24;2.40;99.90
21163;DHT22;10739;52.198;20.908;2022-10-20T04:25:50;2.40;99.90
21163;DHT22;10739;52.198;20.908;2022-10-20T04:28:18;2.40;99.90
21163;DHT22;10739;52.198;20.908;2022-10-20T04:30:46;2.40;99.90
21163;DHT22;10739;52.198;20.908;2022-10-20T04:33:12;2.40;99.90
21163;DHT22;10739;52.198;20.908;2022-10-20T04:35:41;2.40;99.90
21163;DHT22;10739;52.198;20.908;2022-10-20T04:38:07;2.40;99.90
21163;DHT22;10739;52.198;20.908;2022-10-20T04:40:34;2.40;99.90
21163;DHT22;10739;52.198;20.908;2022-10-20T04:43:00;2.40;99.90
21163;DHT22;10739;52.198;20.908;2022-10-20T04:45:27;2.40;99.90
21163;DHT22;10739;52.198;20.908;2022-10-20T04:47:53;2.40;99.90
21163;DHT22;10739;52.198;20.908;2022-10-20T04:50:19;2.40;99.90
21163;DHT22;10739;52.198;20.908;2022-10-20T04:52:46;2.40;99.90
21163;DHT22;10739;52.198;20.908;2022-10-20T04:55:12;2.40;99.90
21163;DHT22;10739;52.198;20.908;2022-10-20T04:57:38;2.40;99.90
21163;DHT22;10739;52.198;20.908;2022-10-20T05:00:05;2.40;99.90
21163;DHT22;10739;52.198;20.908;2022-10-20T05:02:32;2.40;99.90
21163;DHT22;10739;52.198;20.908;2022-10-20T05:04:58;2.30;99.90
21163;DHT22;10739;52.198;20.908;2022-10-20T05:07:24;2.30;99.90
21163;DHT22;10739;52.198;20.908;2022-10-20T05:09:53;2.30;99.90
21163;DHT22;10739;52.198;20.908;2022-10-20T05:12:20;2.30;99.90
21163;DHT22;10739;52.198;20.908;2022-10-20T05:14:46;2.30;99.90
21163;DHT22;10739;52.198;20.908;2022-10-20T05:17:12;2.30;99.90
21163;DHT22;10739;52.198;20.908;2022-10-20T05:19:39;2.30;99.90
21163;DHT22;10739;52.198;20.908;2022-10-20T05:22:06;2.30;99.90
21163;DHT22;10739;52.198;20.908;2022-10-20T05:24:32;2.30;99.90
21163;DHT22;10739;52.198;20.908;2022-10-20T05:26:58;2.30;99.90
21163;DHT22;10739;52.198;20.908;2022-10-20T05:29:24;2.30;99.90
21163;DHT22;10739;52.198;20.908;2022-10-20T05:31:50;2.30;99.90
21163;DHT22;10739;52.198;20.908;2022-10-20T05:34:17;2.30;99.90
21163;DHT22;10739;52.198;20.908;2022-10-20T05:36:43;2.30;99.90
21163;DHT22;10739;52.198;20.908;2022-10-20T05:39:10;2.30;99.90
21163;DHT22;10739;52.198;20.908;2022-10-20T05:41:37;2.30;99.90
21163;DHT22;10739;52.198;20.908;2022-10-20T05:44:05;2.30;99.90
21163;DHT22;10739;52.198;20.908;2022-10-20T05:46:34;2.30;99.90
21163;DHT22;10739;52.198;20.908;2022-10-20T05:49:06;2.30;99.90
21163;DHT22;10739;52.198;20.908;2022-10-20T05:51:37;2.40;99.90
21163;DHT22;10739;52.198;20.908;2022-10-20T05:54:03;2.50;99.90
21163;DHT22;10739;52.198;20.908;2022-10-20T05:56:30;2.50;99.90
21163;DHT22;10739;52.198;20.908;2022-10-20T05:58:58;2.60;99.90
21163;DHT22;10739;52.198;20.908;2022-10-20T06:01:29;2.70;99.90
21163;DHT22;10739;52.198;20.908;2022-10-20T06:04:19;2.80;99.90
21163;DHT22;10739;52.198;20.908;2022-10-20T06:06:56;2.70;99.90
21163;DHT22;10739;52.198;20.908;2022-10-20T06:09:23;2.70;99.90
21163;DHT22;10739;52.198;20.908;2022-10-20T06:11:50;2.60;99.90
21163;DHT22;10739;52.198;20.908;2022-10-20T06:14:17;2.70;99.90
21163;DHT22;10739;52.198;20.908;2022-10-20T06:16:50;2.90;99.90
21163;DHT22;10739;52.198;20.908;2022-10-20T06:19:16;3.00;99.90
21163;DHT22;10739;52.198;20.908;2022-10-20T06:21:43;3.00;99.90
21163;DHT22;10739;52.198;20.908;2022-10-20T06:24:11;2.90;99.90
21163;DHT22;10739;52.198;20.908;2022-10-20T06:26:38;3.00;99.90
21163;DHT22;10739;52.198;20.908;2022-10-20T06:29:08;3.10;99.90
21163;DHT22;10739;52.198;20.908;2022-10-20T06:31:41;3.10;99.90
21163;DHT22;10739;52.198;20.908;2022-10-20T06:34:14;3.00;99.90
21163;DHT22;10739;52.198;20.908;2022-10-20T06:36:42;2.90;99.90
21163;DHT22;10739;52.198;20.908;2022-10-20T06:39:12;3.00;99.90
21163;DHT22;10739;52.198;20.908;2022-10-20T06:41:40;2.90;99.90
21163;DHT22;10739;52.198;20.908;2022-10-20T06:44:07;3.00;99.90
21163;DHT22;10739;52.198;20.908;2022-10-20T06:46:35;2.90;99.90
21163;DHT22;10739;52.198;20.908;2022-10-20T06:49:04;3.00;99.90
21163;DHT22;10739;52.198;20.908;2022-10-20T06:51:33;2.90;99.90
21163;DHT22;10739;52.198;20.908;2022-10-20T06:54:00;3.10;99.90
21163;DHT22;10739;52.198;20.908;2022-10-20T06:56:29;3.20;99.90
21163;DHT22;10739;52.198;20.908;2022-10-20T06:58:58;3.20;99.90
21163;DHT22;10739;52.198;20.908;2022-10-20T07:01:30;3.10;99.90
21163;DHT22;10739;52.198;20.908;2022-10-20T07:04:00;3.20;99.90
21163;DHT22;10739;52.198;20.908;2022-10-20T07:06:34;3.30;99.90
21163;DHT22;10739;52.198;20.908;2022-10-20T07:09:04;3.40;99.90
21163;DHT22;10739;52.198;20.908;2022-10-20T07:11:33;3.50;99.90
21163;DHT22;10739;52.198;20.908;2022-10-20T07:14:00;3.50;99.90
21163;DHT22;10739;52.198;20.908;2022-10-20T07:16:29;3.70;99.90
21163;DHT22;10739;52.198;20.908;2022-10-20T07:18:59;3.90;99.90
21163;DHT22;10739;52.198;20.908;2022-10-20T07:21:27;4.10;99.90
21163;DHT22;10739;52.198;20.908;2022-10-20T07:23:56;4.20;99.90
21163;DHT22;10739;52.198;20.908;2022-10-20T07:26:30;4.10;99.90
21163;DHT22;10739;52.198;20.908;2022-10-20T07:28:59;4.10;99.90
21163;DHT22;10739;52.198;20.908;2022-10-20T07:34:06;4.40;99.90
21163;DHT22;10739;52.198;20.908;2022-10-20T07:36:34;4.60;99.90
21163;DHT22;10739;52.198;20.908;2022-10-20T07:39:03;4.50;99.90
21163;DHT22;10739;52.198;20.908;2022-10-20T07:41:31;4.50;99.90
21163;DHT22;10739;52.198;20.908;2022-10-20T07:43:58;4.80;99.90
21163;DHT22;10739;52.198;20.908;2022-10-20T07:46:24;4.90;99.90
21163;DHT22;10739;52.198;20.908;2022-10-20T07:48:51;4.80;99.90
21163;DHT22;10739;52.198;20.908;2022-10-20T07:51:25;4.70;99.90
21163;DHT22;10739;52.198;20.908;2022-10-20T07:53:59;4.90;99.90
21163;DHT22;10739;52.198;20.908;2022-10-20T07:56:33;5.10;99.90
21163;DHT22;10739;52.198;20.908;2022-10-20T07:59:08;5.40;99.90
21163;DHT22;10739;52.198;20.908;2022-10-20T08:01:35;5.80;99.90
21163;DHT22;10739;52.198;20.908;2022-10-20T08:04:01;6.10;99.90
21163;DHT22;10739;52.198;20.908;2022-10-20T08:06:28;6.50;99.90
21163;DHT22;10739;52.198;20.908;2022-10-20T08:08:54;6.70;99.90
21163;DHT22;10739;52.198;20.908;2022-10-20T08:11:21;6.80;99.90
21163;DHT22;10739;52.198;20.908;2022-10-20T08:13:48;7.20;99.90
21163;DHT22;10739;52.198;20.908;2022-10-20T08:16:14;6.80;99.90
21163;DHT22;10739;52.198;20.908;2022-10-20T08:18:42;7.50;99.90
21163;DHT22;10739;52.198;20.908;2022-10-20T08:21:16;8.70;99.90
21163;DHT22;10739;52.198;20.908;2022-10-20T08:23:47;10.30;99.90
21163;DHT22;10739;52.198;20.908;2022-10-20T08:26:20;11.20;99.90
21163;DHT22;10739;52.198;20.908;2022-10-20T08:28:48;12.00;99.90
21163;DHT22;10739;52.198;20.908;2022-10-20T08:31:15;11.90;99.90
21163;DHT22;10739;52.198;20.908;2022-10-20T08:33:42;10.70;99.90
21163;DHT22;10739;52.198;20.908;2022-10-20T08:36:11;9.90;99.90
21163;DHT22;10739;52.198;20.908;2022-10-20T08:38:40;9.60;99.90
21163;DHT22;10739;52.198;20.908;2022-10-20T08:41:21;9.70;99.90
21163;DHT22;10739;52.198;20.908;2022-10-20T08:43:51;10.40;99.90
21163;DHT22;10739;52.198;20.908;2022-10-20T08:46:28;10.80;99.90
21163;DHT22;10739;52.198;20.908;2022-10-20T08:48:57;10.90;99.90
21163;DHT22;10739;52.198;20.908;2022-10-20T08:51:28;10.90;99.90
21163;DHT22;10739;52.198;20.908;2022-10-20T08:53:59;11.10;99.90
21163;DHT22;10739;52.198;20.908;2022-10-20T08:56:29;10.80;99.90
21163;DHT22;10739;52.198;20.908;2022-10-20T08:58:58;10.40;99.90
21163;DHT22;10739;52.198;20.908;2022-10-20T09:01:26;9.70;99.90
21163;DHT22;10739;52.198;20.908;2022-10-20T09:04:14;9.30;99.90
21163;DHT22;10739;52.198;20.908;2022-10-20T09:06:52;9.40;99.90
21163;DHT22;10739;52.198;20.908;2022-10-20T09:09:24;9.70;99.90
21163;DHT22;10739;52.198;20.908;2022-10-20T09:12:03;9.50;99.90
21163;DHT22;10739;52.198;20.908;2022-10-20T09:14:33;9.40;99.90
21163;DHT22;10739;52.198;20.908;2022-10-20T09:17:02;9.20;99.90
21163;DHT22;10739;52.198;20.908;2022-10-20T09:19:30;9.40;99.90
21163;DHT22;10739;52.198;20.908;2022-10-20T09:22:04;9.40;99.90
21163;DHT22;10739;52.198;20.908;2022-10-20T09:24:34;9.40;99.90
21163;DHT22;10739;52.198;20.908;2022-10-20T09:27:39;9.60;99.90
21163;DHT22;10739;52.198;20.908;2022-10-20T09:30:20;10.10;99.90
21163;DHT22;10739;52.198;20.908;2022-10-20T09:32:48;10.30;99.90
21163;DHT22;10739;52.198;20.908;2022-10-20T09:35:27;10.20;99.90
21163;DHT22;10739;52.198;20.908;2022-10-20T09:38:18;10.10;99.90
21163;DHT22;10739;52.198;20.908;2022-10-20T09:43:27;10.20;99.90
21163;DHT22;10739;52.198;20.908;2022-10-20T09:46:03;9.80;99.90
21163;DHT22;10739;52.198;20.908;2022-10-20T09:48:41;9.50;99.90
21163;DHT22;10739;52.198;20.908;2022-10-20T09:51:15;9.30;99.90
21163;DHT22;10739;52.198;20.908;2022-10-20T09:56:29;9.00;99.90
21163;DHT22;10739;52.198;20.908;2022-10-20T09:59:08;9.00;99.90
21163;DHT22;10739;52.198;20.908;2022-10-20T10:01:54;8.90;99.90
21163;DHT22;10739;52.198;20.908;2022-10-20T10:04:51;9.00;99.90
21163;DHT22;10739;52.198;20.908;2022-10-20T10:10:02;8.90;99.90
21163;DHT22;10739;52.198;20.908;2022-10-20T10:12:30;8.90;99.90
21163;DHT22;10739;52.198;20.908;2022-10-20T10:15:06;8.90;99.90
21163;DHT22;10739;52.198;20.908;2022-10-20T10:17:51;8.90;99.90
21163;DHT22;10739;52.198;20.908;2022-10-20T10:22:48;9.20;99.90
21163;DHT22;10739;52.198;20.908;2022-10-20T10:25:17;9.20;99.90
21163;DHT22;10739;52.198;20.908;2022-10-20T10:30:40;9.30;99.90
21163;DHT22;10739;52.198;20.908;2022-10-20T10:33:27;9.40;99.90
21163;DHT22;10739;52.198;20.908;2022-10-20T10:35:54;9.30;99.90
21163;DHT22;10739;52.198;20.908;2022-10-20T10:38:21;9.30;99.90
21163;DHT22;10739;52.198;20.908;2022-10-20T10:46:42;9.30;99.90
21163;DHT22;10739;52.198;20.908;2022-10-20T11:04:03;9.40;99.90
21163;DHT22;10739;52.198;20.908;2022-10-20T11:13:18;9.40;99.90
21163;DHT22;10739;52.198;20.908;2022-10-20T11:19:02;9.50;99.90
21163;DHT22;10739;52.198;20.908;2022-10-20T11:27:57;9.90;99.90
21163;DHT22;10739;52.198;20.908;2022-10-20T11:30:25;10.00;99.90
21163;DHT22;10739;52.198;20.908;2022-10-20T11:35:37;9.50;99.90
21163;DHT22;10739;52.198;20.908;2022-10-20T11:38:22;9.50;99.90
21163;DHT22;10739;52.198;20.908;2022-10-20T11:41:13;9.60;99.90
21163;DHT22;10739;52.198;20.908;2022-10-20T11:46:44;9.80;99.90
21163;DHT22;10739;52.198;20.908;2022-10-20T11:49:25;10.00;99.90
21163;DHT22;10739;52.198;20.908;2022-10-20T11:52:34;10.30;99.90
21163;DHT22;10739;52.198;20.908;2022-10-20T11:55:33;10.60;99.90
21163;DHT22;10739;52.198;20.908;2022-10-20T12:09:50;10.90;99.90
21163;DHT22;10739;52.198;20.908;2022-10-20T12:14:59;11.20;99.90
21163;DHT22;10739;52.198;20.908;2022-10-20T12:17:33;11.30;99.90
21163;DHT22;10739;52.198;20.908;2022-10-20T12:25:21;11.40;99.90
21163;DHT22;10739;52.198;20.908;2022-10-20T12:30:58;11.20;99.90
21163;DHT22;10739;52.198;20.908;2022-10-20T12:38:50;10.80;99.90
21163;DHT22;10739;52.198;20.908;2022-10-20T12:41:27;10.80;99.90
21163;DHT22;10739;52.198;20.908;2022-10-20T12:44:06;10.90;99.90
21163;DHT22;10739;52.198;20.908;2022-10-20T12:47:05;10.80;99.90
21163;DHT22;10739;52.198;20.908;2022-10-20T12:49:34;10.80;99.90
21163;DHT22;10739;52.198;20.908;2022-10-20T12:52:17;10.70;99.90
21163;DHT22;10739;52.198;20.908;2022-10-20T12:54:54;10.60;99.90
21163;DHT22;10739;52.198;20.908;2022-10-20T12:57:36;10.70;99.90
21163;DHT22;10739;52.198;20.908;2022-10-20T13:02:59;10.80;99.90
21163;DHT22;10739;52.198;20.908;2022-10-20T13:05:45;10.70;99.90
21163;DHT22;10739;52.198;20.908;2022-10-20T13:10:46;10.50;99.90
21163;DHT22;10739;52.198;20.908;2022-10-20T13:26:35;10.20;99.90
21163;DHT22;10739;52.198;20.908;2022-10-20T13:29:18;10.30;99.90
21163;DHT22;10739;52.198;20.908;2022-10-20T13:37:59;10.50;99.90
21163;DHT22;10739;52.198;20.908;2022-10-20T13:46:29;10.50;99.90
21163;DHT22;10739;52.198;20.908;2022-10-20T13:52:12;10.50;99.90
21163;DHT22;10739;52.198;20.908;2022-10-20T13:54:42;10.30;99.90
21163;DHT22;10739;52.198;20.908;2022-10-20T13:57:25;10.20;99.90
21163;DHT22;10739;52.198;20.908;2022-10-20T14:00:04;10.30;99.90
21163;DHT22;10739;52.198;20.908;2022-10-20T14:03:14;10.30;99.90
21163;DHT22;10739;52.198;20.908;2022-10-20T14:05:41;10.40;99.90
21163;DHT22;10739;52.198;20.908;2022-10-20T14:08:10;10.40;99.90
21163;DHT22;10739;52.198;20.908;2022-10-20T14:13:33;10.40;99.90
21163;DHT22;10739;52.198;20.908;2022-10-20T14:16:03;10.40;99.90
21163;DHT22;10739;52.198;20.908;2022-10-20T14:18:33;10.40;99.90
21163;DHT22;10739;52.198;20.908;2022-10-20T14:21:15;10.40;99.90
21163;DHT22;10739;52.198;20.908;2022-10-20T14:23:44;10.30;99.90
21163;DHT22;10739;52.198;20.908;2022-10-20T14:26:19;10.40;99.90
21163;DHT22;10739;52.198;20.908;2022-10-20T14:28:48;10.40;99.90
21163;DHT22;10739;52.198;20.908;2022-10-20T14:31:15;10.30;99.90
21163;DHT22;10739;52.198;20.908;2022-10-20T14:33:47;10.30;99.90
21163;DHT22;10739;52.198;20.908;2022-10-20T14:36:23;10.30;99.90
21163;DHT22;10739;52.198;20.908;2022-10-20T14:38:54;10.80;99.90
21163;DHT22;10739;52.198;20.908;2022-10-20T14:41:27;10.20;99.90
21163;DHT22;10739;52.198;20.908;2022-10-20T14:44:00;10.00;99.90
21163;DHT22;10739;52.198;20.908;2022-10-20T14:46:35;9.90;99.90
21163;DHT22;10739;52.198;20.908;2022-10-20T14:49:15;9.90;99.90
21163;DHT22;10739;52.198;20.908;2022-10-20T14:51:59;9.80;99.90
21163;DHT22;10739;52.198;20.908;2022-10-20T14:54:36;9.70;99.90
21163;DHT22;10739;52.198;20.908;2022-10-20T14:59:57;9.90;99.90
21163;DHT22;10739;52.198;20.908;2022-10-20T15:07:56;9.60;99.90
21163;DHT22;10739;52.198;20.908;2022-10-20T15:10:25;9.60;99.90
21163;DHT22;10739;52.198;20.908;2022-10-20T15:12:53;9.60;99.90
21163;DHT22;10739;52.198;20.908;2022-10-20T15:15:25;9.50;99.90
21163;DHT22;10739;52.198;20.908;2022-10-20T15:31:23;9.60;99.90
21163;DHT22;10739;52.198;20.908;2022-10-20T15:33:50;9.60;99.90
21163;DHT22;10739;52.198;20.908;2022-10-20T15:36:22;9.60;99.90
21163;DHT22;10739;52.198;20.908;2022-10-20T15:38:55;9.50;99.90
21163;DHT22;10739;52.198;20.908;2022-10-20T15:41:25;9.50;99.90
21163;DHT22;10739;52.198;20.908;2022-10-20T15:43:52;9.40;99.90
21163;DHT22;10739;52.198;20.908;2022-10-20T15:46:19;9.30;99.90
21163;DHT22;10739;52.198;20.908;2022-10-20T15:48:46;9.20;99.90
21163;DHT22;10739;52.198;20.908;2022-10-20T15:51:29;9.20;99.90
21163;DHT22;10739;52.198;20.908;2022-10-20T15:53:58;9.10;99.90
21163;DHT22;10739;52.198;20.908;2022-10-20T15:56:24;9.10;99.90
21163;DHT22;10739;52.198;20.908;2022-10-20T15:58:51;9.10;99.90
21163;DHT22;10739;52.198;20.908;2022-10-20T16:01:19;9.10;99.90
21163;DHT22;10739;52.198;20.908;2022-10-20T16:03:47;9.00;99.90
21163;DHT22;10739;52.198;20.908;2022-10-20T16:06:15;9.00;99.90
21163;DHT22;10739;52.198;20.908;2022-10-20T16:08:44;8.90;99.90
21163;DHT22;10739;52.198;20.908;2022-10-20T16:11:13;8.90;99.90
21163;DHT22;10739;52.198;20.908;2022-10-20T16:13:42;8.80;99.90
21163;DHT22;10739;52.198;20.908;2022-10-20T16:16:15;8.80;99.90
21163;DHT22;10739;52.198;20.908;2022-10-20T16:18:44;8.80;99.90
21163;DHT22;10739;52.198;20.908;2022-10-20T16:21:11;8.80;99.90
21163;DHT22;10739;52.198;20.908;2022-10-20T16:23:37;8.80;99.90
21163;DHT22;10739;52.198;20.908;2022-10-20T16:26:08;8.80;99.90
21163;DHT22;10739;52.198;20.908;2022-10-20T16:28:37;8.80;99.90
21163;DHT22;10739;52.198;20.908;2022-10-20T16:31:09;8.90;99.90
21163;DHT22;10739;52.198;20.908;2022-10-20T16:33:37;9.00;99.90
21163;DHT22;10739;52.198;20.908;2022-10-20T16:36:06;8.90;99.90
21163;DHT22;10739;52.198;20.908;2022-10-20T16:38:35;8.80;99.90
21163;DHT22;10739;52.198;20.908;2022-10-20T16:41:07;8.80;99.90
21163;DHT22;10739;52.198;20.908;2022-10-20T16:43:43;8.70;99.90
21163;DHT22;10739;52.198;20.908;2022-10-20T16:46:11;8.70;99.90
21163;DHT22;10739;52.198;20.908;2022-10-20T16:48:38;8.60;99.90
21163;DHT22;10739;52.198;20.908;2022-10-20T16:51:06;8.60;99.90
21163;DHT22;10739;52.198;20.908;2022-10-20T16:53:35;8.60;99.90
21163;DHT22;10739;52.198;20.908;2022-10-20T16:56:01;8.60;99.90
21163;DHT22;10739;52.198;20.908;2022-10-20T16:58:28;8.70;99.90
21163;DHT22;10739;52.198;20.908;2022-10-20T17:01:05;8.60;99.90
21163;DHT22;10739;52.198;20.908;2022-10-20T17:03:39;8.60;99.90
21163;DHT22;10739;52.198;20.908;2022-10-20T17:06:08;8.50;99.90
21163;DHT22;10739;52.198;20.908;2022-10-20T17:08:35;8.40;99.90
21163;DHT22;10739;52.198;20.908;2022-10-20T17:11:08;8.40;99.90
21163;DHT22;10739;52.198;20.908;2022-10-20T17:13:37;8.40;99.90
21163;DHT22;10739;52.198;20.908;2022-10-20T17:16:10;8.30;99.90
21163;DHT22;10739;52.198;20.908;2022-10-20T17:18:38;8.30;99.90
21163;DHT22;10739;52.198;20.908;2022-10-20T17:21:05;8.30;99.90
21163;DHT22;10739;52.198;20.908;2022-10-20T17:23:34;8.30;99.90
21163;DHT22;10739;52.198;20.908;2022-10-20T17:26:03;8.30;99.90
21163;DHT22;10739;52.198;20.908;2022-10-20T17:28:32;8.20;99.90
21163;DHT22;10739;52.198;20.908;2022-10-20T17:30:59;8.10;99.90
21163;DHT22;10739;52.198;20.908;2022-10-20T17:33:27;8.10;99.90
21163;DHT22;10739;52.198;20.908;2022-10-20T17:35:56;8.10;99.90
21163;DHT22;10739;52.198;20.908;2022-10-20T17:38:25;9.20;99.90
21163;DHT22;10739;52.198;20.908;2022-10-20T17:40:52;7.90;99.90
21163;DHT22;10739;52.198;20.908;2022-10-20T17:43:20;7.80;99.90
21163;DHT22;10739;52.198;20.908;2022-10-20T17:45:57;7.80;99.90
21163;DHT22;10739;52.198;20.908;2022-10-20T17:48:30;7.80;99.90
21163;DHT22;10739;52.198;20.908;2022-10-20T17:51:07;7.70;99.90
21163;DHT22;10739;52.198;20.908;2022-10-20T17:53:41;7.70;99.90
21163;DHT22;10739;52.198;20.908;2022-10-20T17:56:12;7.50;99.90
21163;DHT22;10739;52.198;20.908;2022-10-20T17:58:43;7.50;99.90
21163;DHT22;10739;52.198;20.908;2022-10-20T18:01:16;7.40;99.90
21163;DHT22;10739;52.198;20.908;2022-10-20T18:03:58;7.30;99.90
21163;DHT22;10739;52.198;20.908;2022-10-20T18:06:28;7.20;99.90
21163;DHT22;10739;52.198;20.908;2022-10-20T18:08:57;7.10;99.90
21163;DHT22;10739;52.198;20.908;2022-10-20T18:11:29;7.00;99.90
21163;DHT22;10739;52.198;20.908;2022-10-20T18:13:58;7.00;99.90
21163;DHT22;10739;52.198;20.908;2022-10-20T18:16:27;6.90;99.90
21163;DHT22;10739;52.198;20.908;2022-10-20T18:18:56;6.80;99.90
21163;DHT22;10739;52.198;20.908;2022-10-20T18:21:23;6.80;99.90
21163;DHT22;10739;52.198;20.908;2022-10-20T18:24:04;6.70;99.90
21163;DHT22;10739;52.198;20.908;2022-10-20T18:26:34;6.60;99.90
21163;DHT22;10739;52.198;20.908;2022-10-20T18:29:04;6.50;99.90
21163;DHT22;10739;52.198;20.908;2022-10-20T18:31:32;6.50;99.90
21163;DHT22;10739;52.198;20.908;2022-10-20T18:34:02;6.40;99.90
21163;DHT22;10739;52.198;20.908;2022-10-20T18:36:30;6.30;99.90
21163;DHT22;10739;52.198;20.908;2022-10-20T18:38:58;6.30;99.90
21163;DHT22;10739;52.198;20.908;2022-10-20T18:41:27;6.20;99.90
21163;DHT22;10739;52.198;20.908;2022-10-20T18:44:00;6.20;99.90
21163;DHT22;10739;52.198;20.908;2022-10-20T18:46:28;6.10;99.90